sensor_id;sensor_type;location;lat;lon;timestamp;temperature;humidity
18073;DHT22;9161;47.348;9.648;2022-10-16T00:03:41;14.40;99.90
18073;DHT22;9161;47.348;9.648;2022-10-16T00:08:26;14.50;99.90
18073;DHT22;9161;47.348;9.648;2022-10-16T00:13:10;14.60;99.90
18073;DHT22;9161;47.348;9.648;2022-10-16T00:17:53;14.60;99.90
18073;DHT22;9161;47.348;9.648;2022-10-16T00:22:37;14.40;99.90
18073;DHT22;9161;47.348;9.648;2022-10-16T00:27:22;14.30;99.90
18073;DHT22;9161;47.348;9.648;2022-10-16T00:32:06;14.40;99.90
18073;DHT22;9161;47.348;9.648;2022-10-16T00:36:49;14.50;99.90
18073;DHT22;9161;47.348;9.648;2022-10-16T00:41:33;14.30;99.90
18073;DHT22;9161;47.348;9.648;2022-10-16T00:46:20;14.30;99.90
18073;DHT22;9161;47.348;9.648;2022-10-16T00:51:04;14.30;99.90
18073;DHT22;9161;47.348;9.648;2022-10-16T00:55:48;14.30;99.90
18073;DHT22;9161;47.348;9.648;2022-10-16T01:00:32;14.30;99.90
18073;DHT22;9161;47.348;9.648;2022-10-16T01:05:17;14.30;99.90
18073;DHT22;9161;47.348;9.648;2022-10-16T01:10:07;14.20;99.90
18073;DHT22;9161;47.348;9.648;2022-10-16T01:14:54;14.10;99.90
18073;DHT22;9161;47.348;9.648;2022-10-16T01:19:55;14.00;99.90
18073;DHT22;9161;47.348;9.648;2022-10-16T01:24:48;14.00;99.90
18073;DHT22;9161;47.348;9.648;2022-10-16T01:29:37;14.10;99.90
18073;DHT22;9161;47.348;9.648;2022-10-16T01:34:28;14.30;99.90
18073;DHT22;9161;47.348;9.648;2022-10-16T01:39:20;14.20;99.90
18073;DHT22;9161;47.348;9.648;2022-10-16T01:44:06;14.20;99.90
18073;DHT22;9161;47.348;9.648;2022-10-16T01:48:54;14.30;99.90
18073;DHT22;9161;47.348;9.648;2022-10-16T01:53:39;14.80;99.90
18073;DHT22;9161;47.348;9.648;2022-10-16T01:58:25;14.70;99.90
18073;DHT22;9161;47.348;9.648;2022-10-16T02:03:14;14.60;99.90
18073;DHT22;9161;47.348;9.648;2022-10-16T02:08:00;14.70;99.90
18073;DHT22;9161;47.348;9.648;2022-10-16T02:12:49;14.60;99.90
18073;DHT22;9161;47.348;9.648;2022-10-16T02:17:34;14.60;99.90
18073;DHT22;9161;47.348;9.648;2022-10-16T02:22:21;14.50;99.90
18073;DHT22;9161;47.348;9.648;2022-10-16T02:27:11;14.50;99.90
18073;DHT22;9161;47.348;9.648;2022-10-16T02:31:57;14.60;99.90
18073;DHT22;9161;47.348;9.648;2022-10-16T02:36:43;14.40;99.90
18073;DHT22;9161;47.348;9.648;2022-10-16T02:41:27;14.20;99.90
18073;DHT22;9161;47.348;9.648;2022-10-16T02:46:12;14.10;99.90
18073;DHT22;9161;47.348;9.648;2022-10-16T02:50:56;14.00;99.90
18073;DHT22;9161;47.348;9.648;2022-10-16T02:55:39;13.90;99.90
18073;DHT22;9161;47.348;9.648;2022-10-16T03:00:23;13.80;99.90
18073;DHT22;9161;47.348;9.648;2022-10-16T03:05:08;13.80;99.90
18073;DHT22;9161;47.348;9.648;2022-10-16T03:09:52;13.60;99.90
18073;DHT22;9161;47.348;9.648;2022-10-16T03:14:36;13.60;99.90
18073;DHT22;9161;47.348;9.648;2022-10-16T03:19:21;13.50;99.90
18073;DHT22;9161;47.348;9.648;2022-10-16T03:24:06;13.30;99.90
18073;DHT22;9161;47.348;9.648;2022-10-16T03:28:50;13.10;99.90
18073;DHT22;9161;47.348;9.648;2022-10-16T03:33:34;13.00;99.90
18073;DHT22;9161;47.348;9.648;2022-10-16T03:38:17;13.00;99.90
18073;DHT22;9161;47.348;9.648;2022-10-16T03:43:02;13.10;99.90
18073;DHT22;9161;47.348;9.648;2022-10-16T03:47:46;13.10;99.90
18073;DHT22;9161;47.348;9.648;2022-10-16T03:52:29;13.10;99.90
18073;DHT22;9161;47.348;9.648;2022-10-16T03:57:14;13.00;99.90
18073;DHT22;9161;47.348;9.648;2022-10-16T04:01:58;13.00;99.90
18073;DHT22;9161;47.348;9.648;2022-10-16T04:06:42;13.00;99.90
18073;DHT22;9161;47.348;9.648;2022-10-16T04:11:25;13.10;99.90
18073;DHT22;9161;47.348;9.648;2022-10-16T04:16:09;13.70;99.90
18073;DHT22;9161;47.348;9.648;2022-10-16T04:20:54;13.90;99.90
18073;DHT22;9161;47.348;9.648;2022-10-16T04:25:38;13.70;99.90
18073;DHT22;9161;47.348;9.648;2022-10-16T04:30:22;13.40;99.90
18073;DHT22;9161;47.348;9.648;2022-10-16T04:35:08;13.30;99.90
18073;DHT22;9161;47.348;9.648;2022-10-16T04:39:53;13.10;99.90
18073;DHT22;9161;47.348;9.648;2022-10-16T04:44:36;13.10;99.90
18073;DHT22;9161;47.348;9.648;2022-10-16T04:49:20;13.10;99.90
18073;DHT22;9161;47.348;9.648;2022-10-16T04:54:03;12.90;99.90
18073;DHT22;9161;47.348;9.648;2022-10-16T04:58:48;12.80;99.90
18073;DHT22;9161;47.348;9.648;2022-10-16T05:03:35;12.70;99.90
18073;DHT22;9161;47.348;9.648;2022-10-16T05:08:18;12.60;99.90
18073;DHT22;9161;47.348;9.648;2022-10-16T05:13:02;12.60;99.90
18073;DHT22;9161;47.348;9.648;2022-10-16T05:17:47;12.50;99.90
18073;DHT22;9161;47.348;9.648;2022-10-16T05:22:30;12.60;99.90
18073;DHT22;9161;47.348;9.648;2022-10-16T05:27:14;12.50;99.90
18073;DHT22;9161;47.348;9.648;2022-10-16T05:32:01;12.50;99.90
18073;DHT22;9161;47.348;9.648;2022-10-16T05:36:45;12.70;99.90
18073;DHT22;9161;47.348;9.648;2022-10-16T05:41:29;12.60;99.90
18073;DHT22;9161;47.348;9.648;2022-10-16T05:46:13;12.60;99.90
18073;DHT22;9161;47.348;9.648;2022-10-16T05:50:58;12.60;99.90
18073;DHT22;9161;47.348;9.648;2022-10-16T05:55:43;12.60;99.90
18073;DHT22;9161;47.348;9.648;2022-10-16T06:00:34;12.70;99.90
18073;DHT22;9161;47.348;9.648;2022-10-16T06:05:18;12.70;99.90
18073;DHT22;9161;47.348;9.648;2022-10-16T06:10:02;12.80;99.90
18073;DHT22;9161;47.348;9.648;2022-10-16T06:14:48;13.20;99.90
18073;DHT22;9161;47.348;9.648;2022-10-16T06:19:31;13.40;99.90
18073;DHT22;9161;47.348;9.648;2022-10-16T06:24:15;13.40;99.90
18073;DHT22;9161;47.348;9.648;2022-10-16T06:28:59;13.40;99.90
18073;DHT22;9161;47.348;9.648;2022-10-16T06:33:49;13.40;99.90
18073;DHT22;9161;47.348;9.648;2022-10-16T06:38:44;13.40;99.90
18073;DHT22;9161;47.348;9.648;2022-10-16T06:43:29;13.50;99.90
18073;DHT22;9161;47.348;9.648;2022-10-16T06:48:14;13.50;99.90
18073;DHT22;9161;47.348;9.648;2022-10-16T06:52:59;13.70;99.90
18073;DHT22;9161;47.348;9.648;2022-10-16T06:57:42;14.00;99.90
18073;DHT22;9161;47.348;9.648;2022-10-16T07:02:26;14.20;99.90
18073;DHT22;9161;47.348;9.648;2022-10-16T07:07:10;14.40;99.90
18073;DHT22;9161;47.348;9.648;2022-10-16T07:11:55;14.70;99.90
18073;DHT22;9161;47.348;9.648;2022-10-16T07:16:39;15.10;99.90
18073;DHT22;9161;47.348;9.648;2022-10-16T07:21:35;16.10;99.90
18073;DHT22;9161;47.348;9.648;2022-10-16T07:26:27;16.80;99.90
18073;DHT22;9161;47.348;9.648;2022-10-16T07:31:14;17.30;99.90
18073;DHT22;9161;47.348;9.648;2022-10-16T07:35:58;17.80;99.90
18073;DHT22;9161;47.348;9.648;2022-10-16T07:40:41;18.70;99.90
18073;DHT22;9161;47.348;9.648;2022-10-16T07:45:25;19.60;99.90
18073;DHT22;9161;47.348;9.648;2022-10-16T07:50:10;20.40;99.90
18073;DHT22;9161;47.348;9.648;2022-10-16T07:54:53;20.80;99.90
18073;DHT22;9161;47.348;9.648;2022-10-16T07:59:37;20.30;99.90
18073;DHT22;9161;47.348;9.648;2022-10-16T08:04:20;20.00;99.90
18073;DHT22;9161;47.348;9.648;2022-10-16T08:09:05;19.40;99.90
18073;DHT22;9161;47.348;9.648;2022-10-16T08:13:49;19.20;99.90
18073;DHT22;9161;47.348;9.648;2022-10-16T08:18:33;19.20;99.90
18073;DHT22;9161;47.348;9.648;2022-10-16T08:23:18;19.20;99.90
18073;DHT22;9161;47.348;9.648;2022-10-16T08:28:03;19.60;99.90
18073;DHT22;9161;47.348;9.648;2022-10-16T08:32:48;19.00;99.90
18073;DHT22;9161;47.348;9.648;2022-10-16T08:37:32;18.80;99.90
18073;DHT22;9161;47.348;9.648;2022-10-16T08:42:22;19.90;99.90
18073;DHT22;9161;47.348;9.648;2022-10-16T08:47:15;21.50;99.90
18073;DHT22;9161;47.348;9.648;2022-10-16T08:52:00;22.50;99.90
18073;DHT22;9161;47.348;9.648;2022-10-16T08:56:44;23.00;99.90
18073;DHT22;9161;47.348;9.648;2022-10-16T09:01:37;23.20;99.90
18073;DHT22;9161;47.348;9.648;2022-10-16T09:06:42;21.10;99.90
18073;DHT22;9161;47.348;9.648;2022-10-16T09:11:34;21.90;99.90
18073;DHT22;9161;47.348;9.648;2022-10-16T09:16:25;22.20;99.90
18073;DHT22;9161;47.348;9.648;2022-10-16T09:21:16;23.90;99.90
18073;DHT22;9161;47.348;9.648;2022-10-16T09:26:03;25.10;99.90
18073;DHT22;9161;47.348;9.648;2022-10-16T09:30:48;25.40;99.90
18073;DHT22;9161;47.348;9.648;2022-10-16T09:35:35;25.80;99.90
18073;DHT22;9161;47.348;9.648;2022-10-16T09:40:27;26.70;99.90
18073;DHT22;9161;47.348;9.648;2022-10-16T09:45:23;27.60;99.90
18073;DHT22;9161;47.348;9.648;2022-10-16T09:50:22;28.30;99.90
18073;DHT22;9161;47.348;9.648;2022-10-16T09:55:14;29.00;99.90
18073;DHT22;9161;47.348;9.648;2022-10-16T09:59:58;27.10;99.90
18073;DHT22;9161;47.348;9.648;2022-10-16T10:04:50;27.20;99.90
18073;DHT22;9161;47.348;9.648;2022-10-16T10:09:38;28.60;99.90
18073;DHT22;9161;47.348;9.648;2022-10-16T10:14:28;30.00;99.90
18073;DHT22;9161;47.348;9.648;2022-10-16T10:19:16;30.60;99.90
18073;DHT22;9161;47.348;9.648;2022-10-16T10:24:02;30.90;99.90
18073;DHT22;9161;47.348;9.648;2022-10-16T10:28:53;30.90;99.90
18073;DHT22;9161;47.348;9.648;2022-10-16T10:33:44;31.70;99.90
18073;DHT22;9161;47.348;9.648;2022-10-16T10:38:38;32.50;98.60
18073;DHT22;9161;47.348;9.648;2022-10-16T10:43:36;31.40;99.90
18073;DHT22;9161;47.348;9.648;2022-10-16T10:53:41;31.20;99.00
18073;DHT22;9161;47.348;9.648;2022-10-16T10:59:07;32.10;96.60
18073;DHT22;9161;47.348;9.648;2022-10-16T11:09:19;32.10;98.70
18073;DHT22;9161;47.348;9.648;2022-10-16T11:14:10;34.30;96.70
18073;DHT22;9161;47.348;9.648;2022-10-16T11:18:59;34.00;94.50
18073;DHT22;9161;47.348;9.648;2022-10-16T11:23:51;32.20;95.70
18073;DHT22;9161;47.348;9.648;2022-10-16T11:28:36;33.00;96.20
18073;DHT22;9161;47.348;9.648;2022-10-16T11:33:28;34.10;94.50
18073;DHT22;9161;47.348;9.648;2022-10-16T11:38:20;31.90;94.50
18073;DHT22;9161;47.348;9.648;2022-10-16T11:43:13;30.70;94.50
18073;DHT22;9161;47.348;9.648;2022-10-16T11:48:02;32.80;94.70
18073;DHT22;9161;47.348;9.648;2022-10-16T11:52:54;34.40;93.20
18073;DHT22;9161;47.348;9.648;2022-10-16T11:57:40;34.70;90.90
18073;DHT22;9161;47.348;9.648;2022-10-16T12:02:38;34.00;90.40
18073;DHT22;9161;47.348;9.648;2022-10-16T12:07:26;35.30;88.20
18073;DHT22;9161;47.348;9.648;2022-10-16T12:12:38;35.50;82.70
18073;DHT22;9161;47.348;9.648;2022-10-16T12:17:34;36.80;89.30
18073;DHT22;9161;47.348;9.648;2022-10-16T12:22:19;36.40;87.00
18073;DHT22;9161;47.348;9.648;2022-10-16T12:27:03;36.10;84.50
18073;DHT22;9161;47.348;9.648;2022-10-16T12:31:50;36.50;86.10
18073;DHT22;9161;47.348;9.648;2022-10-16T12:36:39;36.20;88.10
18073;DHT22;9161;47.348;9.648;2022-10-16T12:41:27;36.60;86.10
18073;DHT22;9161;47.348;9.648;2022-10-16T12:46:23;36.40;84.80
18073;DHT22;9161;47.348;9.648;2022-10-16T12:51:19;36.90;84.50
18073;DHT22;9161;47.348;9.648;2022-10-16T12:56:15;36.80;83.30
18073;DHT22;9161;47.348;9.648;2022-10-16T13:01:10;36.40;82.50
18073;DHT22;9161;47.348;9.648;2022-10-16T13:06:04;36.80;78.70
18073;DHT22;9161;47.348;9.648;2022-10-16T13:11:00;37.20;79.60
18073;DHT22;9161;47.348;9.648;2022-10-16T13:16:07;37.20;80.00
18073;DHT22;9161;47.348;9.648;2022-10-16T13:21:00;36.90;77.60
18073;DHT22;9161;47.348;9.648;2022-10-16T13:26:03;37.60;78.70
18073;DHT22;9161;47.348;9.648;2022-10-16T13:30:53;37.60;78.60
18073;DHT22;9161;47.348;9.648;2022-10-16T13:35:36;37.60;75.10
18073;DHT22;9161;47.348;9.648;2022-10-16T13:40:22;37.80;76.50
18073;DHT22;9161;47.348;9.648;2022-10-16T13:45:18;37.80;76.60
18073;DHT22;9161;47.348;9.648;2022-10-16T13:50:03;37.70;74.80
18073;DHT22;9161;47.348;9.648;2022-10-16T13:54:47;38.20;75.50
18073;DHT22;9161;47.348;9.648;2022-10-16T13:59:34;38.10;74.50
18073;DHT22;9161;47.348;9.648;2022-10-16T14:04:19;38.30;74.30
18073;DHT22;9161;47.348;9.648;2022-10-16T14:09:06;38.30;75.80
18073;DHT22;9161;47.348;9.648;2022-10-16T14:13:51;37.90;74.50
18073;DHT22;9161;47.348;9.648;2022-10-16T14:18:35;36.60;77.60
18073;DHT22;9161;47.348;9.648;2022-10-16T14:23:23;37.60;78.20
18073;DHT22;9161;47.348;9.648;2022-10-16T14:28:16;36.70;78.00
18073;DHT22;9161;47.348;9.648;2022-10-16T14:33:03;35.80;79.30
18073;DHT22;9161;47.348;9.648;2022-10-16T14:37:50;36.10;79.00
18073;DHT22;9161;47.348;9.648;2022-10-16T14:42:36;34.90;81.50
18073;DHT22;9161;47.348;9.648;2022-10-16T14:47:22;35.30;82.30
18073;DHT22;9161;47.348;9.648;2022-10-16T14:52:10;35.20;83.20
18073;DHT22;9161;47.348;9.648;2022-10-16T14:56:55;34.90;81.60
18073;DHT22;9161;47.348;9.648;2022-10-16T15:01:42;34.50;79.70
18073;DHT22;9161;47.348;9.648;2022-10-16T15:06:26;34.10;79.50
18073;DHT22;9161;47.348;9.648;2022-10-16T15:11:11;34.90;81.40
18073;DHT22;9161;47.348;9.648;2022-10-16T15:15:56;34.20;83.30
18073;DHT22;9161;47.348;9.648;2022-10-16T15:20:41;33.50;81.00
18073;DHT22;9161;47.348;9.648;2022-10-16T15:25:32;32.70;85.80
18073;DHT22;9161;47.348;9.648;2022-10-16T15:30:16;32.30;87.10
18073;DHT22;9161;47.348;9.648;2022-10-16T15:35:00;32.00;88.70
18073;DHT22;9161;47.348;9.648;2022-10-16T15:39:45;31.60;89.20
18073;DHT22;9161;47.348;9.648;2022-10-16T15:44:29;29.60;92.20
18073;DHT22;9161;47.348;9.648;2022-10-16T15:49:15;28.00;94.00
18073;DHT22;9161;47.348;9.648;2022-10-16T15:53:58;26.60;96.40
18073;DHT22;9161;47.348;9.648;2022-10-16T15:58:45;25.30;98.60
18073;DHT22;9161;47.348;9.648;2022-10-16T16:03:29;25.00;99.80
18073;DHT22;9161;47.348;9.648;2022-10-16T16:08:13;25.00;99.90
18073;DHT22;9161;47.348;9.648;2022-10-16T16:12:57;23.50;99.90
18073;DHT22;9161;47.348;9.648;2022-10-16T16:17:42;22.70;99.90
18073;DHT22;9161;47.348;9.648;2022-10-16T16:22:27;22.40;99.90
18073;DHT22;9161;47.348;9.648;2022-10-16T16:27:11;21.70;99.90
18073;DHT22;9161;47.348;9.648;2022-10-16T16:31:56;20.80;99.90
18073;DHT22;9161;47.348;9.648;2022-10-16T16:36:43;20.40;99.90
18073;DHT22;9161;47.348;9.648;2022-10-16T16:41:28;20.00;99.90
18073;DHT22;9161;47.348;9.648;2022-10-16T16:46:12;19.80;99.90
18073;DHT22;9161;47.348;9.648;2022-10-16T16:50:56;19.40;99.90
18073;DHT22;9161;47.348;9.648;2022-10-16T16:55:41;19.10;99.90
18073;DHT22;9161;47.348;9.648;2022-10-16T17:00:25;19.10;99.90
18073;DHT22;9161;47.348;9.648;2022-10-16T17:05:10;18.80;99.90
18073;DHT22;9161;47.348;9.648;2022-10-16T17:09:56;18.60;99.90
18073;DHT22;9161;47.348;9.648;2022-10-16T17:14:43;18.40;99.90
18073;DHT22;9161;47.348;9.648;2022-10-16T17:19:28;18.20;99.90
18073;DHT22;9161;47.348;9.648;2022-10-16T17:24:13;17.90;99.90
18073;DHT22;9161;47.348;9.648;2022-10-16T17:29:00;17.90;99.90
18073;DHT22;9161;47.348;9.648;2022-10-16T17:33:50;17.70;99.90
18073;DHT22;9161;47.348;9.648;2022-10-16T17:38:37;17.60;99.90
18073;DHT22;9161;47.348;9.648;2022-10-16T17:43:23;17.20;99.90
18073;DHT22;9161;47.348;9.648;2022-10-16T17:48:08;17.20;99.90
18073;DHT22;9161;47.348;9.648;2022-10-16T17:52:55;17.10;99.90
18073;DHT22;9161;47.348;9.648;2022-10-16T17:57:40;16.90;99.90
18073;DHT22;9161;47.348;9.648;2022-10-16T18:02:25;16.80;99.90
18073;DHT22;9161;47.348;9.648;2022-10-16T18:07:12;16.50;99.90
18073;DHT22;9161;47.348;9.648;2022-10-16T18:11:58;16.50;99.90
18073;DHT22;9161;47.348;9.648;2022-10-16T18:16:44;16.40;99.90
18073;DHT22;9161;47.348;9.648;2022-10-16T18:21:35;16.30;99.90
18073;DHT22;9161;47.348;9.648;2022-10-16T18:26:23;16.20;99.90
18073;DHT22;9161;47.348;9.648;2022-10-16T18:31:12;16.10;99.90
18073;DHT22;9161;47.348;9.648;2022-10-16T18:36:00;16.10;99.90
18073;DHT22;9161;47.348;9.648;2022-10-16T18:40:46;16.00;99.90
18073;DHT22;9161;47.348;9.648;2022-10-16T18:45:31;15.80;99.90
18073;DHT22;9161;47.348;9.648;2022-10-16T18:50:18;15.70;99.90
18073;DHT22;9161;47.348;9.648;2022-10-16T18:55:09;15.50;99.90
18073;DHT22;9161;47.348;9.648;2022-10-16T18:59:55;15.40;99.90
18073;DHT22;9161;47.348;9.648;2022-10-16T19:04:41;15.40;99.90
18073;DHT22;9161;47.348;9.648;2022-10-16T19:09:32;15.10;99.90
18073;DHT22;9161;47.348;9.648;2022-10-16T19:14:17;14.90;99.90
18073;DHT22;9161;47.348;9.648;2022-10-16T19:19:06;14.90;99.90
18073;DHT22;9161;47.348;9.648;2022-10-16T19:23:51;14.80;99.90
18073;DHT22;9161;47.348;9.648;2022-10-16T19:28:37;14.80;99.90
18073;DHT22;9161;47.348;9.648;2022-10-16T19:33:22;14.80;99.90
18073;DHT22;9161;47.348;9.648;2022-10-16T19:38:06;14.80;99.90
18073;DHT22;9161;47.348;9.648;2022-10-16T19:42:50;14.80;99.90
18073;DHT22;9161;47.348;9.648;2022-10-16T19:47:36;14.80;99.90
18073;DHT22;9161;47.348;9.648;2022-10-16T19:52:21;14.70;99.90
18073;DHT22;9161;47.348;9.648;2022-10-16T19:57:06;14.50;99.90
18073;DHT22;9161;47.348;9.648;2022-10-16T20:01:50;14.30;99.90
18073;DHT22;9161;47.348;9.648;2022-10-16T20:06:36;14.40;99.90
18073;DHT22;9161;47.348;9.648;2022-10-16T20:11:22;14.30;99.90
18073;DHT22;9161;47.348;9.648;2022-10-16T20:16:07;14.20;99.90
18073;DHT22;9161;47.348;9.648;2022-10-16T20:20:51;14.00;99.90
18073;DHT22;9161;47.348;9.648;2022-10-16T20:25:37;13.90;99.90
18073;DHT22;9161;47.348;9.648;2022-10-16T20:30:21;13.90;99.90
18073;DHT22;9161;47.348;9.648;2022-10-16T20:35:05;13.90;99.90
18073;DHT22;9161;47.348;9.648;2022-10-16T20:39:49;14.00;99.90
18073;DHT22;9161;47.348;9.648;2022-10-16T20:44:34;13.70;99.90
18073;DHT22;9161;47.348;9.648;2022-10-16T20:49:17;13.60;99.90
18073;DHT22;9161;47.348;9.648;2022-10-16T20:54:20;13.70;99.90
18073;DHT22;9161;47.348;9.648;2022-10-16T20:59:04;13.50;99.90
18073;DHT22;9161;47.348;9.648;2022-10-16T21:03:51;13.40;99.90
18073;DHT22;9161;47.348;9.648;2022-10-16T21:08:35;13.40;99.90
18073;DHT22;9161;47.348;9.648;2022-10-16T21:13:19;13.30;99.90
18073;DHT22;9161;47.348;9.648;2022-10-16T21:18:06;13.30;99.90
18073;DHT22;9161;47.348;9.648;2022-10-16T21:22:51;13.10;99.90
18073;DHT22;9161;47.348;9.648;2022-10-16T21:27:36;13.10;99.90
18073;DHT22;9161;47.348;9.648;2022-10-16T21:32:20;13.00;99.90
18073;DHT22;9161;47.348;9.648;2022-10-16T21:37:03;12.80;99.90
18073;DHT22;9161;47.348;9.648;2022-10-16T21:41:49;12.70;99.90
18073;DHT22;9161;47.348;9.648;2022-10-16T21:46:34;12.70;99.90
18073;DHT22;9161;47.348;9.648;2022-10-16T21:51:18;12.80;99.90
18073;DHT22;9161;47.348;9.648;2022-10-16T21:56:02;12.80;99.90
18073;DHT22;9161;47.348;9.648;2022-10-16T22:00:47;12.70;99.90
18073;DHT22;9161;47.348;9.648;2022-10-16T22:05:32;12.50;99.90
18073;DHT22;9161;47.348;9.648;2022-10-16T22:10:16;12.50;99.90
18073;DHT22;9161;47.348;9.648;2022-10-16T22:14:59;12.50;99.90
18073;DHT22;9161;47.348;9.648;2022-10-16T22:19:44;12.40;99.90
18073;DHT22;9161;47.348;9.648;2022-10-16T22:24:28;12.20;99.90
18073;DHT22;9161;47.348;9.648;2022-10-16T22:29:15;12.30;99.90
18073;DHT22;9161;47.348;9.648;2022-10-16T22:34:00;12.50;99.90
18073;DHT22;9161;47.348;9.648;2022-10-16T22:38:45;12.50;99.90
18073;DHT22;9161;47.348;9.648;2022-10-16T22:43:29;12.50;99.90
18073;DHT22;9161;47.348;9.648;2022-10-16T22:48:12;12.90;99.90
18073;DHT22;9161;47.348;9.648;2022-10-16T22:52:56;12.80;99.90
18073;DHT22;9161;47.348;9.648;2022-10-16T22:57:41;12.60;99.90
18073;DHT22;9161;47.348;9.648;2022-10-16T23:02:24;12.50;99.90
18073;DHT22;9161;47.348;9.648;2022-10-16T23:07:08;12.40;99.90
18073;DHT22;9161;47.348;9.648;2022-10-16T23:11:52;12.30;99.90
18073;DHT22;9161;47.348;9.648;2022-10-16T23:16:37;12.30;99.90
18073;DHT22;9161;47.348;9.648;2022-10-16T23:21:22;12.20;99.90
18073;DHT22;9161;47.348;9.648;2022-10-16T23:26:08;12.10;99.90
18073;DHT22;9161;47.348;9.648;2022-10-16T23:30:52;12.10;99.90
18073;DHT22;9161;47.348;9.648;2022-10-16T23:35:40;11.90;99.90
18073;DHT22;9161;47.348;9.648;2022-10-16T23:40:23;11.90;99.90
18073;DHT22;9161;47.348;9.648;2022-10-16T23:45:07;12.00;99.90
18073;DHT22;9161;47.348;9.648;2022-10-16T23:49:51;11.90;99.90
18073;DHT22;9161;47.348;9.648;2022-10-16T23:54:36;11.80;99.90
18073;DHT22;9161;47.348;9.648;2022-10-16T23:59:19;11.70;99.90
